Time;durP1;ratioP1;P1;durP2;ratioP2;P2;SDS_P1;SDS_P2;PMS_P1;PMS_P2;Temp;Humidity;BMP_temperature;BMP_pressure;BME280_temperature;BME280_humidity;BME280_pressure;Samples;Min_cycle;Max_cycle;Signal;HPM_P1;HPM_P2
2024/03/29 00:00:24;;;;;;;3.13;0.95;;;13.30;87.90;;;;;;4958560;28;20081;-76
2024/03/29 00:02:50;;;;;;;2.78;1.02;;;13.30;87.30;;;;;;4974775;28;20031;-77
2024/03/29 00:05:15;;;;;;;2.65;0.90;;;13.20;87.30;;;;;;4974836;28;20035;-77
2024/03/29 00:07:41;;;;;;;3.47;0.93;;;13.20;87.60;;;;;;4975897;28;20030;-76
2024/03/29 00:10:07;;;;;;;2.08;0.90;;;13.30;87.40;;;;;;4958618;28;20035;-78
2024/03/29 00:12:32;;;;;;;3.35;0.80;;;13.20;87.20;;;;;;4974206;28;20066;-76
2024/03/29 00:14:58;;;;;;;2.63;1.10;;;13.20;87.30;;;;;;4974963;28;20110;-75
2024/03/29 00:17:23;;;;;;;3.00;0.90;;;13.20;86.90;;;;;;4974924;28;20034;-76
2024/03/29 00:19:49;;;;;;;3.65;0.82;;;13.20;87.70;;;;;;4976000;28;20039;-76
2024/03/29 00:22:14;;;;;;;3.60;0.90;;;13.30;87.60;;;;;;4976020;28;20031;-76
2024/03/29 00:24:40;;;;;;;2.58;0.85;;;13.20;87.50;;;;;;4975957;28;20026;-77
2024/03/29 00:27:05;;;;;;;3.03;1.00;;;13.20;87.10;;;;;;4974699;28;20027;-77
2024/03/29 00:29:31;;;;;;;2.38;0.82;;;13.20;87.20;;;;;;4974564;28;20085;-77
2024/03/29 00:31:57;;;;;;;4.13;1.08;;;13.20;87.10;;;;;;4974770;28;20030;-76
2024/03/29 00:34:22;;;;;;;2.22;0.77;;;13.30;87.50;;;;;;4975756;28;20376;-76
2024/03/29 00:36:48;;;;;;;2.33;0.80;;;13.10;87.30;;;;;;4974552;28;20046;-76
2024/03/29 00:39:14;;;;;;;2.97;1.15;;;13.20;87.20;;;;;;4975808;28;20065;-76
2024/03/29 00:41:39;;;;;;;3.47;1.00;;;13.20;87.20;;;;;;4974647;28;20037;-75
2024/03/29 00:44:05;;;;;;;2.80;1.00;;;13.20;86.70;;;;;;4958510;28;20050;-76
2024/03/29 00:46:30;;;;;;;2.22;0.90;;;13.30;87.30;;;;;;4976009;28;20038;-76
2024/03/29 00:48:56;;;;;;;2.33;0.88;;;13.20;86.70;;;;;;4974837;28;20019;-75
2024/03/29 00:51:21;;;;;;;1.42;0.57;;;13.20;86.90;;;;;;4974698;28;20085;-76
2024/03/29 00:53:47;;;;;;;2.88;1.00;;;13.30;87.00;;;;;;4974659;28;20121;-75
2024/03/29 00:56:15;;;;;;;2.83;0.90;;;13.20;86.60;;;;;;4975861;28;20031;-76
2024/03/29 00:58:40;;;;;;;3.25;0.70;;;13.20;86.90;;;;;;4975655;28;20094;-76
2024/03/29 01:01:06;;;;;;;2.90;0.88;;;13.30;86.60;;;;;;4958094;28;20060;-77
2024/03/29 01:03:31;;;;;;;4.20;1.08;;;13.20;86.60;;;;;;4974247;28;20089;-77
2024/03/29 01:05:57;;;;;;;2.67;1.00;;;13.20;86.70;;;;;;4974514;28;20503;-76
2024/03/29 01:08:23;;;;;;;2.80;0.90;;;13.20;86.70;;;;;;4975700;28;20444;-76
2024/03/29 01:10:49;;;;;;;2.17;0.90;;;13.20;86.70;;;;;;4973189;28;20037;-76
2024/03/29 01:13:15;;;;;;;2.15;0.90;;;13.20;87.10;;;;;;4974310;28;20024;-76
2024/03/29 01:15:40;;;;;;;2.22;0.75;;;13.20;86.40;;;;;;4973974;28;20480;-76
2024/03/29 01:18:06;;;;;;;4.00;0.95;;;13.30;86.40;;;;;;4974097;28;20023;-76
2024/03/29 01:20:32;;;;;;;2.78;0.85;;;13.20;86.30;;;;;;4975163;28;20031;-76
2024/03/29 01:22:57;;;;;;;2.92;0.80;;;13.20;85.90;;;;;;4975230;28;20022;-77
2024/03/29 01:25:24;;;;;;;2.28;0.75;;;13.20;86.30;;;;;;4974683;28;20026;-76
2024/03/29 01:27:49;;;;;;;2.60;1.00;;;13.20;86.20;;;;;;4974969;28;20057;-76
2024/03/29 01:30:15;;;;;;;2.17;0.82;;;13.20;86.20;;;;;;4974773;28;20484;-77
2024/03/29 01:32:41;;;;;;;2.80;0.80;;;13.20;86.00;;;;;;4973616;28;20031;-76
2024/03/29 01:35:06;;;;;;;1.98;0.80;;;13.20;86.10;;;;;;4957477;28;20033;-75
2024/03/29 01:37:32;;;;;;;3.63;1.00;;;13.20;86.30;;;;;;4973999;28;20035;-76
2024/03/29 01:39:58;;;;;;;1.63;0.63;;;13.10;86.00;;;;;;4974964;28;20106;-76
2024/03/29 01:42:23;;;;;;;2.72;0.90;;;13.20;86.10;;;;;;4974892;28;20492;-75
2024/03/29 01:44:49;;;;;;;4.45;1.10;;;13.20;86.00;;;;;;4974859;28;20026;-77
2024/03/29 01:47:17;;;;;;;1.83;0.75;;;13.20;85.80;;;;;;4973654;28;20034;-76
2024/03/29 01:49:44;;;;;;;2.47;0.75;;;13.20;86.00;;;;;;4973366;28;20042;-77
2024/03/29 01:52:11;;;;;;;2.55;0.80;;;13.20;85.90;;;;;;4974425;28;20035;-76
2024/03/29 01:54:37;;;;;;;1.52;0.70;;;13.20;85.80;;;;;;4974586;28;20035;-77
2024/03/29 01:57:03;;;;;;;2.70;0.93;;;13.10;85.90;;;;;;4973373;28;20041;-76
2024/03/29 01:59:29;;;;;;;1.88;0.70;;;13.20;86.10;;;;;;4989262;28;20027;-76
2024/03/29 02:01:55;;;;;;;2.20;0.80;;;13.20;86.30;;;;;;4974639;28;20563;-76
2024/03/29 02:04:21;;;;;;;3.08;0.80;;;13.20;86.20;;;;;;4972758;28;20476;-77
2024/03/29 02:06:47;;;;;;;1.88;0.70;;;13.10;85.90;;;;;;4972632;28;20069;-77
2024/03/29 02:09:13;;;;;;;2.60;0.85;;;13.20;85.80;;;;;;4972782;28;20047;-76
2024/03/29 02:11:38;;;;;;;2.50;0.80;;;13.20;86.10;;;;;;4973501;28;20030;-77
2024/03/29 02:14:06;;;;;;;3.50;0.98;;;13.10;85.60;;;;;;4972287;28;20038;-77
2024/03/29 02:16:32;;;;;;;4.22;1.17;;;13.20;85.80;;;;;;4972222;28;20052;-76
2024/03/29 02:18:57;;;;;;;1.17;0.70;;;13.10;85.70;;;;;;4972193;28;20026;-75
2024/03/29 02:21:23;;;;;;;1.88;0.70;;;13.20;85.90;;;;;;4971075;28;20035;-76
2024/03/29 02:23:55;;;;;;;2.88;0.70;;;13.10;86.00;;;;;;4973350;28;20026;-76
2024/03/29 02:26:21;;;;;;;2.38;0.80;;;13.20;85.70;;;;;;4972149;28;20662;-77
2024/03/29 02:28:47;;;;;;;1.77;0.73;;;13.10;85.80;;;;;;4971855;28;20031;-76
2024/03/29 02:31:12;;;;;;;3.03;0.85;;;13.20;85.80;;;;;;4971661;28;20019;-76
2024/03/29 02:33:38;;;;;;;1.83;0.70;;;13.20;85.50;;;;;;4972069;28;20030;-76
2024/03/29 02:36:04;;;;;;;1.55;0.60;;;13.10;85.40;;;;;;4956139;28;20447;-76
2024/03/29 02:38:29;;;;;;;1.65;0.60;;;13.10;85.80;;;;;;4972067;28;20036;-77
2024/03/29 02:40:55;;;;;;;1.80;0.80;;;13.10;85.90;;;;;;4971808;28;20415;-76
2024/03/29 02:43:20;;;;;;;1.63;0.68;;;13.10;85.90;;;;;;4973825;28;20019;-76
2024/03/29 02:45:46;;;;;;;1.70;0.88;;;13.10;85.90;;;;;;4973226;28;20392;-77
2024/03/29 02:48:11;;;;;;;1.88;0.70;;;13.00;85.70;;;;;;4971991;28;20085;-76
2024/03/29 02:50:37;;;;;;;1.55;0.60;;;13.20;85.50;;;;;;4971616;28;20105;-76
2024/03/29 02:53:03;;;;;;;1.55;0.60;;;13.10;84.90;;;;;;4973199;28;20035;-77
2024/03/29 02:55:28;;;;;;;1.90;0.63;;;13.10;84.70;;;;;;4971967;28;20085;-76
2024/03/29 02:57:54;;;;;;;2.83;0.80;;;13.20;84.90;;;;;;4971811;28;20035;-77
2024/03/29 03:00:19;;;;;;;1.52;0.75;;;13.00;84.20;;;;;;4971473;28;20063;-76
2024/03/29 03:02:45;;;;;;;2.60;0.90;;;13.10;84.50;;;;;;4972170;28;20174;-77
2024/03/29 03:05:11;;;;;;;2.50;0.65;;;13.10;84.40;;;;;;4971682;28;20027;-76
2024/03/29 03:13:04;;;;;;;2.45;0.70;;;13.10;85.10;;;;;;4972820;28;20085;-77
2024/03/29 03:15:30;;;;;;;1.35;0.50;;;13.10;85.10;;;;;;4971556;28;20030;-77
2024/03/29 03:17:56;;;;;;;1.92;0.73;;;13.10;85.00;;;;;;4971462;28;20444;-76
2024/03/29 03:20:22;;;;;;;2.13;0.60;;;13.10;84.90;;;;;;4972035;28;20046;-77
2024/03/29 03:22:48;;;;;;;2.17;0.80;;;13.10;85.10;;;;;;4971185;28;20399;-76
2024/03/29 03:25:13;;;;;;;2.38;0.70;;;13.10;85.10;;;;;;4971249;28;20022;-76
2024/03/29 03:27:39;;;;;;;1.73;0.60;;;13.10;85.20;;;;;;4955181;28;20643;-77
2024/03/29 03:30:05;;;;;;;1.13;0.60;;;13.10;85.30;;;;;;4972197;28;20027;-76
2024/03/29 03:32:31;;;;;;;1.23;0.60;;;13.10;85.00;;;;;;4972089;28;20034;-78
2024/03/29 03:34:57;;;;;;;1.08;0.43;;;13.10;85.30;;;;;;4971259;28;20480;-76
2024/03/29 03:37:22;;;;;;;1.23;0.52;;;13.10;85.10;;;;;;4971290;28;20395;-75
2024/03/29 03:39:48;;;;;;;1.30;0.60;;;13.10;85.10;;;;;;4972509;28;20051;-76
2024/03/29 03:42:13;;;;;;;1.90;0.90;;;13.00;85.20;;;;;;4972278;28;20046;-76
2024/03/29 03:44:39;;;;;;;2.30;0.70;;;13.10;85.10;;;;;;4971243;28;20027;-76
2024/03/29 03:47:04;;;;;;;1.15;0.50;;;13.00;84.80;;;;;;4972418;28;20110;-77
2024/03/29 03:49:30;;;;;;;0.77;0.50;;;13.10;84.90;;;;;;4954760;28;20042;-76
2024/03/29 03:51:55;;;;;;;2.28;0.60;;;13.10;85.30;;;;;;4971062;28;20042;-77
2024/03/29 03:54:21;;;;;;;1.63;0.70;;;13.10;85.00;;;;;;4972516;28;20033;-77
2024/03/29 03:56:46;;;;;;;2.05;0.65;;;13.10;84.60;;;;;;4972155;28;20033;-76
2024/03/29 03:59:14;;;;;;;1.70;0.60;;;13.00;85.10;;;;;;4971238;28;20031;-76
2024/03/29 04:01:40;;;;;;;1.75;0.75;;;13.10;85.00;;;;;;4972109;28;20031;-77
2024/03/29 04:04:05;;;;;;;1.98;0.73;;;13.10;84.60;;;;;;4972319;28;20050;-76
2024/03/29 04:06:31;;;;;;;1.13;0.45;;;13.10;84.60;;;;;;4972504;28;20247;-76
2024/03/29 04:08:57;;;;;;;1.45;0.70;;;13.00;84.60;;;;;;4972261;28;20018;-76
2024/03/29 04:11:23;;;;;;;2.38;0.68;;;13.10;85.10;;;;;;4971737;28;20034;-76
2024/03/29 04:13:48;;;;;;;1.70;0.63;;;13.10;84.70;;;;;;4972348;28;20069;-77
2024/03/29 04:16:14;;;;;;;2.22;0.70;;;13.10;85.00;;;;;;4972412;28;20015;-77
2024/03/29 04:18:39;;;;;;;1.00;0.45;;;13.10;84.70;;;;;;4955110;28;20031;-76
2024/03/29 04:21:05;;;;;;;1.52;0.70;;;13.00;84.90;;;;;;4971597;28;20089;-77
2024/03/29 04:23:31;;;;;;;1.67;0.75;;;13.10;84.50;;;;;;4970958;28;20078;-76
2024/03/29 04:25:58;;;;;;;2.08;0.50;;;13.10;84.40;;;;;;4970544;28;20023;-77
2024/03/29 04:28:25;;;;;;;1.27;0.47;;;13.10;84.70;;;;;;4972211;28;20034;-76
2024/03/29 04:30:56;;;;;;;2.03;0.60;;;13.10;85.00;;;;;;4971614;28;20108;-76
2024/03/29 04:33:22;;;;;;;1.43;0.60;;;13.10;84.10;;;;;;4970721;28;20023;-76
2024/03/29 04:35:59;;;;;;;1.45;0.65;;;13.00;83.80;;;;;;4971980;28;20133;-76
2024/03/29 04:38:26;;;;;;;0.73;0.40;;;13.10;84.00;;;;;;4972271;28;20027;-77
2024/03/29 04:40:52;;;;;;;2.50;0.60;;;13.00;83.60;;;;;;4970345;28;20396;-78
2024/03/29 04:43:22;;;;;;;1.58;0.70;;;13.10;83.70;;;;;;4971025;28;20038;-77
2024/03/29 04:45:48;;;;;;;1.67;0.70;;;13.10;83.90;;;;;;4972566;28;20034;-75
2024/03/29 04:54:59;;;;;;;1.45;0.77;;;13.10;84.90;;;;;;4975501;28;20073;-77
2024/03/29 04:57:24;;;;;;;1.40;0.57;;;13.10;85.00;;;;;;4972337;28;20034;-76
2024/03/29 04:59:50;;;;;;;1.50;0.60;;;13.10;84.90;;;;;;4975210;28;20463;-76
2024/03/29 05:02:16;;;;;;;1.05;0.50;;;13.10;85.00;;;;;;4973957;28;20444;-76
2024/03/29 05:04:42;;;;;;;1.13;0.50;;;13.00;85.20;;;;;;4973968;28;20503;-77
2024/03/29 05:07:08;;;;;;;1.27;0.60;;;12.90;85.10;;;;;;4973814;28;20694;-75
2024/03/29 05:09:35;;;;;;;1.70;0.60;;;13.00;85.30;;;;;;4957663;28;20031;-76
2024/03/29 05:12:00;;;;;;;2.47;0.70;;;13.00;85.40;;;;;;4974857;28;20030;-77
2024/03/29 05:14:26;;;;;;;1.52;0.65;;;13.10;85.50;;;;;;4957600;28;20121;-77
2024/03/29 05:16:51;;;;;;;1.23;0.50;;;13.10;85.60;;;;;;4973878;28;20038;-76
2024/03/29 05:19:17;;;;;;;1.63;0.68;;;13.00;85.60;;;;;;4975142;28;20829;-76
2024/03/29 05:21:43;;;;;;;2.35;0.80;;;13.00;85.70;;;;;;4973455;28;20035;-77
2024/03/29 05:24:09;;;;;;;1.30;0.50;;;13.00;85.70;;;;;;4973452;28;20023;-76
2024/03/29 05:26:34;;;;;;;1.27;0.60;;;12.90;85.70;;;;;;4973617;28;20504;-77
2024/03/29 05:29:00;;;;;;;1.58;0.50;;;13.10;85.90;;;;;;4974483;28;20027;-76
2024/03/29 05:31:29;;;;;;;1.73;0.60;;;13.00;85.90;;;;;;4974473;28;20027;-77
2024/03/29 05:33:55;;;;;;;1.70;0.60;;;13.10;86.50;;;;;;4974746;28;20145;-76
2024/03/29 05:36:20;;;;;;;1.00;0.50;;;13.10;85.90;;;;;;4974454;28;20523;-76
2024/03/29 05:38:46;;;;;;;1.00;0.52;;;13.00;86.00;;;;;;4974818;28;20054;-76
2024/03/29 05:41:11;;;;;;;2.60;0.77;;;13.00;86.00;;;;;;4974109;28;20030;-78
2024/03/29 05:43:40;;;;;;;1.63;0.65;;;13.10;86.10;;;;;;4957446;28;20051;-77
2024/03/29 05:46:05;;;;;;;1.35;0.60;;;13.00;86.00;;;;;;4974743;28;20029;-76
2024/03/29 05:48:31;;;;;;;1.77;0.65;;;12.90;86.10;;;;;;4974655;28;20026;-76
2024/03/29 05:50:56;;;;;;;1.33;0.50;;;13.00;86.30;;;;;;4974335;28;20089;-76
2024/03/29 05:53:22;;;;;;;1.10;0.70;;;13.00;86.30;;;;;;4974425;28;20038;-76
2024/03/29 05:55:47;;;;;;;1.17;0.68;;;13.00;86.30;;;;;;4974068;28;20038;-76
2024/03/29 05:58:17;;;;;;;1.48;0.60;;;13.00;86.40;;;;;;4974299;28;20443;-76
2024/03/29 06:00:43;;;;;;;1.48;0.80;;;13.00;86.40;;;;;;4973873;28;20051;-77
2024/03/29 06:03:09;;;;;;;1.10;0.50;;;13.00;86.40;;;;;;4974079;28;20030;-77
2024/03/29 06:05:34;;;;;;;0.75;0.40;;;13.00;86.40;;;;;;4974265;28;20027;-75
2024/03/29 06:08:00;;;;;;;1.20;0.50;;;13.00;86.50;;;;;;4974329;28;20034;-77
2024/03/29 06:10:26;;;;;;;0.93;0.43;;;13.00;86.50;;;;;;4972280;28;20026;-77
2024/03/29 06:12:51;;;;;;;1.67;0.50;;;13.00;86.50;;;;;;4972957;28;20945;-77
2024/03/29 06:18:01;;;;;;;1.98;0.93;;;13.00;86.60;;;;;;4974134;28;20065;-76
2024/03/29 06:20:26;;;;;;;1.13;0.60;;;13.00;86.60;;;;;;4972228;28;20023;-76
2024/03/29 06:22:52;;;;;;;1.98;0.80;;;13.00;86.60;;;;;;4973805;28;20065;-76
2024/03/29 06:25:18;;;;;;;0.68;0.40;;;13.00;86.70;;;;;;4972554;28;20062;-75
2024/03/29 06:27:47;;;;;;;2.17;0.60;;;13.00;86.60;;;;;;4972810;28;20038;-76
2024/03/29 06:30:13;;;;;;;0.70;0.50;;;13.10;86.70;;;;;;4973690;28;20039;-76
2024/03/29 06:32:39;;;;;;;2.00;0.55;;;13.00;86.60;;;;;;4973257;28;20027;-76
2024/03/29 06:35:05;;;;;;;1.73;0.63;;;13.00;86.70;;;;;;4972712;28;20035;-76
2024/03/29 06:37:31;;;;;;;1.27;0.60;;;13.00;86.70;;;;;;4972411;28;20034;-77
2024/03/29 06:39:57;;;;;;;1.83;0.57;;;13.00;86.70;;;;;;4972477;28;20035;-78
2024/03/29 06:42:23;;;;;;;0.98;0.50;;;12.90;86.60;;;;;;4974124;28;20026;-76
2024/03/29 06:44:49;;;;;;;2.53;0.63;;;13.10;86.70;;;;;;4972673;28;20034;-77
2024/03/29 06:47:15;;;;;;;1.58;0.57;;;13.00;86.60;;;;;;4972007;28;20041;-76
2024/03/29 06:49:40;;;;;;;1.30;0.60;;;13.00;86.70;;;;;;4973292;28;20129;-76
2024/03/29 06:52:06;;;;;;;1.15;0.50;;;13.00;86.60;;;;;;4971987;28;20034;-76
2024/03/29 06:54:33;;;;;;;1.15;0.60;;;13.00;86.60;;;;;;4971113;28;20269;-76
2024/03/29 06:56:59;;;;;;;1.05;0.50;;;13.00;86.60;;;;;;4970888;28;20167;-79
2024/03/29 06:59:25;;;;;;;1.83;0.70;;;13.10;86.70;;;;;;4967012;28;20031;-77
2024/03/29 07:01:54;;;;;;;0.77;0.50;;;13.10;86.70;;;;;;4968478;28;20067;-76
2024/03/29 07:04:21;;;;;;;1.17;0.50;;;13.00;86.60;;;;;;4979778;28;20030;-77
2024/03/29 07:06:52;;;;;;;1.33;0.50;;;13.00;86.60;;;;;;4967712;28;20030;-77
2024/03/29 07:09:20;;;;;;;1.63;0.55;;;12.90;86.50;;;;;;4967514;28;20031;-77
2024/03/29 07:11:47;;;;;;;1.08;0.50;;;13.00;86.70;;;;;;4968837;28;20027;-77
2024/03/29 07:14:13;;;;;;;1.52;0.60;;;12.90;86.60;;;;;;4957043;28;20066;-77
2024/03/29 07:16:39;;;;;;;1.63;0.50;;;13.00;86.60;;;;;;4983116;28;20137;-77
2024/03/29 07:19:05;;;;;;;0.80;0.40;;;13.00;86.70;;;;;;4968398;28;20110;-77
2024/03/29 07:21:30;;;;;;;2.38;0.75;;;13.00;86.60;;;;;;4965996;28;20054;-76
2024/03/29 07:23:56;;;;;;;0.98;0.47;;;13.00;86.70;;;;;;4967194;28;20641;-77
2024/03/29 07:26:22;;;;;;;1.17;0.45;;;13.00;86.60;;;;;;4967931;28;20502;-77
2024/03/29 07:28:47;;;;;;;1.90;0.60;;;13.00;86.60;;;;;;4951006;28;20041;-77
2024/03/29 07:31:13;;;;;;;1.73;0.47;;;13.00;86.60;;;;;;4968818;28;20034;-76
2024/03/29 07:33:39;;;;;;;1.17;0.50;;;13.00;86.60;;;;;;4967317;28;20037;-78
2024/03/29 07:36:05;;;;;;;0.95;0.35;;;12.90;86.60;;;;;;4967466;28;20039;-77
2024/03/29 07:38:34;;;;;;;1.35;0.50;;;13.00;86.60;;;;;;4967159;28;20038;-77
2024/03/29 07:41:00;;;;;;;0.80;0.40;;;13.00;86.60;;;;;;4968704;28;20571;-76
2024/03/29 07:43:26;;;;;;;1.83;0.60;;;13.00;86.50;;;;;;4967936;28;20126;-77
2024/03/29 07:45:51;;;;;;;1.55;0.65;;;13.00;86.50;;;;;;4969812;28;20033;-78
2024/03/29 07:48:18;;;;;;;1.13;0.43;;;13.00;86.50;;;;;;4967191;28;20058;-76
2024/03/29 07:50:46;;;;;;;2.17;0.50;;;13.00;86.50;;;;;;4968491;28;20518;-78
2024/03/29 07:53:12;;;;;;;1.33;0.40;;;13.00;86.50;;;;;;4968960;28;20845;-76
2024/03/29 07:55:40;;;;;;;1.30;0.50;;;13.10;86.50;;;;;;4968575;28;20078;-77
2024/03/29 07:58:06;;;;;;;1.40;0.52;;;13.00;86.40;;;;;;4968983;28;20118;-76
2024/03/29 08:00:32;;;;;;;1.50;0.50;;;13.00;86.50;;;;;;4967927;28;20113;-78
2024/03/29 08:02:59;;;;;;;0.45;0.40;;;13.00;86.90;;;;;;4967775;28;20038;-78
2024/03/29 08:05:24;;;;;;;1.38;0.40;;;13.00;86.30;;;;;;4968098;28;20050;-77
2024/03/29 08:07:50;;;;;;;1.38;0.50;;;13.00;86.50;;;;;;4966998;28;20069;-77
2024/03/29 08:10:16;;;;;;;2.00;0.70;;;13.00;86.40;;;;;;4968927;28;20031;-76
2024/03/29 08:12:41;;;;;;;1.92;0.60;;;13.00;86.30;;;;;;4951506;28;20059;-77
2024/03/29 08:15:08;;;;;;;1.33;0.65;;;12.90;86.10;;;;;;4968402;28;20033;-77
2024/03/29 08:17:34;;;;;;;1.52;0.60;;;13.00;86.20;;;;;;4968181;28;20093;-77
2024/03/29 08:19:59;;;;;;;1.38;0.50;;;12.90;86.10;;;;;;4969132;28;20480;-78
2024/03/29 08:22:25;;;;;;;1.00;0.50;;;13.00;86.30;;;;;;4971172;28;20034;-76
2024/03/29 08:24:51;;;;;;;1.17;0.40;;;13.00;86.10;;;;;;4970817;28;20410;-77
2024/03/29 08:27:17;;;;;;;1.52;0.60;;;13.00;86.20;;;;;;4969565;28;20579;-76
2024/03/29 08:29:43;;;;;;;1.45;0.50;;;13.00;86.10;;;;;;4971027;28;20435;-76
2024/03/29 08:32:12;;;;;;;0.73;0.43;;;13.00;86.10;;;;;;4978330;28;20113;-77
2024/03/29 08:34:38;;;;;;;1.25;0.60;;;13.00;86.00;;;;;;4969860;28;20057;-76
2024/03/29 08:37:04;;;;;;;2.22;0.60;;;13.00;86.10;;;;;;4970941;28;20038;-75
2024/03/29 08:39:32;;;;;;;2.45;0.63;;;13.00;85.90;;;;;;4971307;28;20022;-75
2024/03/29 08:42:05;;;;;;;1.23;0.50;;;13.00;86.10;;;;;;4970817;28;20118;-76
2024/03/29 08:44:34;;;;;;;1.88;0.55;;;13.00;86.10;;;;;;4971792;28;20562;-76
2024/03/29 08:47:01;;;;;;;1.10;0.50;;;13.00;86.20;;;;;;4971116;28;20035;-76
2024/03/29 08:49:27;;;;;;;0.73;0.40;;;13.00;86.20;;;;;;4971040;28;20414;-76
2024/03/29 08:51:53;;;;;;;0.60;0.40;;;13.00;86.30;;;;;;4969557;28;20041;-75
2024/03/29 08:54:19;;;;;;;1.50;0.70;;;13.00;86.10;;;;;;4971165;28;20031;-75
2024/03/29 08:56:44;;;;;;;0.90;0.60;;;13.00;86.00;;;;;;4970199;28;20551;-75
2024/03/29 08:59:11;;;;;;;1.90;0.70;;;12.90;85.90;;;;;;4971737;28;20092;-77
2024/03/29 09:01:39;;;;;;;1.10;0.60;;;13.00;86.10;;;;;;4969190;28;20026;-76
2024/03/29 09:04:07;;;;;;;1.73;0.70;;;13.00;86.10;;;;;;4970647;28;20109;-76
2024/03/29 09:06:33;;;;;;;1.65;0.52;;;13.00;86.30;;;;;;4971249;28;20483;-78
2024/03/29 09:08:59;;;;;;;2.45;0.50;;;12.90;86.10;;;;;;4970367;28;20023;-75
2024/03/29 09:11:24;;;;;;;1.40;0.60;;;12.90;86.20;;;;;;4970020;28;20035;-76
2024/03/29 09:13:50;;;;;;;1.48;0.50;;;13.00;86.10;;;;;;4970543;28;20039;-76
2024/03/29 09:16:16;;;;;;;1.58;0.70;;;13.00;86.20;;;;;;4969709;28;20126;-77
2024/03/29 09:18:42;;;;;;;2.25;0.70;;;13.00;86.00;;;;;;4970824;28;20036;-77
2024/03/29 09:21:09;;;;;;;1.42;0.60;;;12.90;86.10;;;;;;4970394;28;20034;-77
2024/03/29 09:23:34;;;;;;;0.93;0.50;;;13.00;86.30;;;;;;4970930;28;20031;-77
2024/03/29 09:26:04;;;;;;;2.05;0.65;;;13.00;85.90;;;;;;4970735;28;20035;-77
2024/03/29 09:28:31;;;;;;;2.08;0.60;;;13.00;86.10;;;;;;4970959;28;20396;-76
2024/03/29 09:31:03;;;;;;;1.27;0.60;;;13.00;86.00;;;;;;4969811;28;20050;-78
2024/03/29 09:33:28;;;;;;;;;;;13.00;86.40;;;;;;4971805;28;20038;-77
2024/03/29 09:35:55;;;;;;;2.22;0.70;;;13.00;86.40;;;;;;4972693;28;19928;-76
2024/03/29 09:38:21;;;;;;;0.73;0.40;;;13.00;85.90;;;;;;4973406;28;20034;-78
2024/03/29 09:40:50;;;;;;;1.05;0.57;;;13.00;86.20;;;;;;4971871;28;20499;-80
2024/03/29 09:43:17;;;;;;;0.90;0.57;;;13.00;86.20;;;;;;4975195;28;20392;-79
2024/03/29 09:45:43;;;;;;;2.28;0.80;;;13.00;86.30;;;;;;4971520;28;20087;-80
2024/03/29 09:48:09;;;;;;;1.95;0.60;;;13.00;86.30;;;;;;4968367;28;20034;-78
2024/03/29 09:50:35;;;;;;;1.23;0.60;;;13.00;86.50;;;;;;4969843;28;20031;-78
2024/03/29 09:53:03;;;;;;;1.85;0.50;;;13.00;86.60;;;;;;4968612;28;20043;-78
2024/03/29 09:55:29;;;;;;;1.98;0.60;;;13.00;86.40;;;;;;4969606;28;20030;-75
2024/03/29 09:57:56;;;;;;;1.42;0.52;;;13.00;86.50;;;;;;4968857;28;20479;-77
2024/03/29 10:00:21;;;;;;;3.17;0.80;;;13.00;86.60;;;;;;4967577;28;20451;-81
2024/03/29 10:02:49;;;;;;;2.15;0.90;;;13.00;86.50;;;;;;4968467;28;20022;-78
2024/03/29 10:05:16;;;;;;;2.00;0.70;;;13.00;86.50;;;;;;4967711;28;20034;-77
2024/03/29 10:07:43;;;;;;;1.88;0.70;;;13.00;86.60;;;;;;4967749;28;20034;-75
2024/03/29 10:10:11;;;;;;;1.70;0.70;;;13.00;86.60;;;;;;4969755;28;20034;-77
2024/03/29 10:12:36;;;;;;;1.30;0.70;;;13.00;86.70;;;;;;4969528;28;20077;-79
2024/03/29 10:15:14;;;;;;;1.98;0.70;;;13.00;86.60;;;;;;4969189;28;20035;-80
2024/03/29 10:17:44;;;;;;;0.90;0.50;;;13.00;86.60;;;;;;4968496;28;20019;-75
2024/03/29 10:20:10;;;;;;;2.30;0.70;;;13.10;86.80;;;;;;4969181;28;20154;-77
2024/03/29 10:22:43;;;;;;;3.60;0.70;;;13.00;86.70;;;;;;4971919;28;20085;-77
2024/03/29 10:25:13;;;;;;;1.35;0.63;;;13.00;86.90;;;;;;4975027;28;20439;-77
2024/03/29 10:27:39;;;;;;;1.10;0.60;;;13.10;86.90;;;;;;4973564;28;20109;-75
2024/03/29 10:30:09;;;;;;;1.77;0.70;;;13.00;86.80;;;;;;4971602;28;20142;-80
2024/03/29 10:32:41;;;;;;;1.55;0.50;;;13.00;86.80;;;;;;4987759;28;20034;-74
2024/03/29 10:35:08;;;;;;;2.28;0.60;;;13.00;86.80;;;;;;4971524;28;20035;-76
2024/03/29 10:37:38;;;;;;;1.02;0.50;;;13.00;86.80;;;;;;4972085;28;20073;-77
2024/03/29 10:40:08;;;;;;;1.90;0.60;;;13.00;86.90;;;;;;4974844;28;20373;-78
2024/03/29 10:42:38;;;;;;;1.35;0.70;;;13.00;86.80;;;;;;4973116;28;20026;-78
2024/03/29 10:45:06;;;;;;;2.28;0.70;;;13.00;86.80;;;;;;4973735;28;20038;-77
2024/03/29 10:47:32;;;;;;;2.83;0.80;;;13.00;86.90;;;;;;4973956;28;20030;-78
2024/03/29 10:49:58;;;;;;;1.48;0.65;;;13.00;86.90;;;;;;4974923;28;20037;-78
2024/03/29 10:52:25;;;;;;;2.60;0.85;;;13.10;87.00;;;;;;4974172;28;20439;-79
2024/03/29 10:54:52;;;;;;;1.70;0.60;;;13.10;87.00;;;;;;4972699;28;20034;-74
2024/03/29 10:57:26;;;;;;;1.60;0.50;;;13.10;87.00;;;;;;4973584;28;20089;-76
2024/03/29 11:00:11;;;;;;;1.38;0.65;;;13.10;87.00;;;;;;4988399;28;20039;-77
2024/03/29 11:03:03;;;;;;;0.95;0.43;;;13.00;87.00;;;;;;4965409;28;20030;-75
2024/03/29 11:05:30;;;;;;;1.83;0.70;;;13.00;87.10;;;;;;4973684;28;20554;-75
2024/03/29 11:07:56;;;;;;;1.52;0.65;;;13.00;87.10;;;;;;4974406;28;20045;-77
2024/03/29 11:10:36;;;;;;;2.05;0.70;;;13.00;87.10;;;;;;4972147;28;20022;-77
2024/03/29 11:13:20;;;;;;;2.72;0.70;;;13.00;87.10;;;;;;4972664;28;20030;-78
2024/03/29 11:15:48;;;;;;;1.08;0.68;;;13.00;87.10;;;;;;4959502;28;20031;-78
2024/03/29 11:18:19;;;;;;;1.98;0.60;;;13.00;87.10;;;;;;4972845;28;20031;-78
2024/03/29 11:20:50;;;;;;;1.25;0.45;;;13.00;87.20;;;;;;4973720;28;20733;-77
2024/03/29 11:23:18;;;;;;;1.45;0.60;;;13.10;87.20;;;;;;4973645;28;20027;-77
2024/03/29 11:25:54;;;;;;;1.00;0.60;;;13.00;87.20;;;;;;4971642;28;20034;-77
2024/03/29 11:28:29;;;;;;;1.13;0.60;;;13.00;87.20;;;;;;4971520;28;20039;-76
2024/03/29 11:31:05;;;;;;;1.77;0.75;;;13.00;87.20;;;;;;4972827;28;20081;-76
2024/03/29 11:33:49;;;;;;;1.20;0.50;;;13.00;87.70;;;;;;4971487;28;20034;-76
2024/03/29 11:36:27;;;;;;;1.08;0.50;;;13.00;87.20;;;;;;4969164;28;20041;-77
2024/03/29 11:38:53;;;;;;;1.33;0.52;;;13.00;87.20;;;;;;4952419;29;20035;-77
2024/03/29 11:41:24;;;;;;;1.75;0.65;;;13.00;87.20;;;;;;4969645;28;20027;-76
2024/03/29 11:43:51;;;;;;;1.15;0.50;;;13.00;87.20;;;;;;4972312;28;20027;-77
2024/03/29 11:46:17;;;;;;;1.90;0.60;;;13.00;87.10;;;;;;4972524;28;20110;-78
2024/03/29 11:48:46;;;;;;;1.67;0.55;;;13.00;87.10;;;;;;4974697;28;20110;-77
2024/03/29 11:51:14;;;;;;;1.30;0.50;;;13.00;87.10;;;;;;4956695;28;20090;-77
2024/03/29 11:53:43;;;;;;;1.20;0.52;;;12.90;87.00;;;;;;4973748;28;20603;-78
2024/03/29 11:56:11;;;;;;;1.17;0.50;;;13.10;87.10;;;;;;4976044;28;20054;-77
2024/03/29 11:58:37;;;;;;;0.82;0.55;;;13.10;87.00;;;;;;4977298;28;20031;-77
2024/03/29 12:01:03;;;;;;;0.68;0.55;;;13.10;87.20;;;;;;4976574;28;20550;-79
2024/03/29 12:03:30;;;;;;;1.83;0.60;;;13.10;87.10;;;;;;4976461;28;20512;-79
2024/03/29 12:05:58;;;;;;;1.35;0.60;;;13.10;87.10;;;;;;4978575;28;20026;-76
2024/03/29 12:08:30;;;;;;;4.78;0.68;;;13.10;87.20;;;;;;4977078;28;20461;-77
2024/03/29 12:10:55;;;;;;;;;;;13.00;87.10;;;;;;4976878;28;20101;-77
2024/03/29 12:13:21;;;;;;;4.20;0.80;;;13.10;87.10;;;;;;4976547;28;19989;-77
2024/03/29 12:15:46;;;;;;;2.88;0.90;;;13.10;87.00;;;;;;4976894;28;20478;-77
2024/03/29 12:18:12;;;;;;;6.97;1.17;;;13.10;87.10;;;;;;4976394;28;20034;-76
2024/03/29 12:20:39;;;;;;;4.05;0.73;;;13.10;87.10;;;;;;4974914;28;20062;-76
2024/03/29 12:23:09;;;;;;;4.15;0.90;;;13.10;87.10;;;;;;4991377;28;20038;-76
2024/03/29 12:25:37;;;;;;;6.30;0.70;;;13.00;87.00;;;;;;4974832;28;20514;-76
2024/03/29 12:28:03;;;;;;;3.05;0.70;;;13.10;87.10;;;;;;4976627;28;20047;-76
2024/03/29 12:30:30;;;;;;;1.55;0.70;;;13.10;87.10;;;;;;4976261;28;20045;-77
2024/03/29 12:33:11;;;;;;;2.00;0.60;;;13.10;87.20;;;;;;4976854;28;20034;-76
2024/03/29 12:35:37;;;;;;;1.58;0.50;;;13.10;87.10;;;;;;4974623;28;20121;-77
2024/03/29 12:38:07;;;;;;;3.30;0.68;;;13.10;87.10;;;;;;4977444;28;20026;-77
2024/03/29 12:40:35;;;;;;;2.78;0.60;;;13.10;87.00;;;;;;4956599;28;20019;-77
2024/03/29 12:43:08;;;;;;;2.05;0.50;;;13.10;87.00;;;;;;4957000;28;20035;-77
2024/03/29 12:45:36;;;;;;;1.42;0.63;;;13.10;87.00;;;;;;4957119;28;20106;-77
2024/03/29 12:48:02;;;;;;;1.77;0.70;;;13.10;87.00;;;;;;4956020;28;20055;-77
2024/03/29 12:50:34;;;;;;;2.35;0.60;;;13.10;87.00;;;;;;4956227;29;20035;-78
2024/03/29 12:53:02;;;;;;;2.15;0.60;;;13.10;87.00;;;;;;4956207;29;20113;-77
2024/03/29 12:55:30;;;;;;;2.00;0.70;;;13.10;87.00;;;;;;4957643;28;20054;-77
2024/03/29 12:57:56;;;;;;;2.63;0.60;;;13.10;87.00;;;;;;4957419;28;20047;-78
2024/03/29 13:00:23;;;;;;;1.67;0.52;;;13.10;87.10;;;;;;4957411;28;20092;-80